createdAt,value
2023-03-15T00:00:45.060Z,94385.59
2023-03-15T00:03:14.805Z,94389.81
2023-03-15T00:05:43.393Z,94384.78
2023-03-15T00:08:12.256Z,94379.56
2023-03-15T00:10:41.277Z,94387.41
2023-03-15T00:13:08.835Z,94384.78
2023-03-15T00:15:36.527Z,94379.56
2023-03-15T00:18:04.172Z,94386.56
2023-03-15T00:20:33.201Z,94382.19
2023-03-15T00:23:00.686Z,94390.19
2023-03-15T00:25:28.317Z,94400.44
2023-03-15T00:27:55.774Z,94397.84
2023-03-15T00:30:23.206Z,94397.00
2023-03-15T00:32:53.808Z,94396.19
2023-03-15T00:35:21.813Z,94387.41
2023-03-15T00:37:50.624Z,94389.19
2023-03-15T00:40:18.398Z,94376.13
2023-03-15T00:42:50.371Z,94381.34
2023-03-15T00:45:18.342Z,94391.78
2023-03-15T00:47:45.995Z,94388.22
2023-03-15T00:50:13.460Z,94398.66
2023-03-15T00:52:41.973Z,94404.84
2023-03-15T00:55:13.232Z,94411.84
2023-03-15T00:57:41.178Z,94427.34
2023-03-15T01:00:10.293Z,94460.44
2023-03-15T01:02:38.357Z,94474.31
2023-03-15T01:05:06.851Z,94482.16
2023-03-15T01:07:34.457Z,94464.84
2023-03-15T01:10:02.449Z,94469.09
2023-03-15T01:12:32.591Z,94470.06
2023-03-15T01:15:00.058Z,94453.59
2023-03-15T01:17:27.690Z,94438.94
2023-03-15T01:19:55.188Z,94434.53
2023-03-15T01:22:22.703Z,94436.31
2023-03-15T01:24:50.224Z,94432.06
2023-03-15T01:27:17.796Z,94438.94
2023-03-15T01:29:46.574Z,94431.09
2023-03-15T01:32:14.135Z,94426.84
2023-03-15T01:34:43.214Z,94418.22
2023-03-15T01:37:14.384Z,94417.41
2023-03-15T01:39:41.918Z,94440.88
2023-03-15T01:42:09.427Z,94439.25
2023-03-15T01:44:51.070Z,94440.06
2023-03-15T01:47:18.530Z,94429.63
2023-03-15T01:49:48.159Z,94434.84
2023-03-15T01:52:18.346Z,94438.44
2023-03-15T01:54:48.163Z,94445.28
2023-03-15T01:57:17.618Z,94443.69
2023-03-15T01:59:46.406Z,94463.53
2023-03-15T02:02:15.312Z,94466.16
2023-03-15T02:04:46.519Z,94463.53
2023-03-15T02:07:14.446Z,94464.53
2023-03-15T02:09:45.236Z,94457.50
2023-03-15T02:12:12.850Z,94460.13
2023-03-15T02:14:41.774Z,94455.72
2023-03-15T02:17:09.302Z,94466.97
2023-03-15T02:19:42.832Z,94469.59
2023-03-15T02:22:15.221Z,94474.81
2023-03-15T02:24:48.418Z,94479.84
2023-03-15T02:27:15.947Z,94484.41
2023-03-15T02:29:44.718Z,94489.47
2023-03-15T02:32:12.141Z,94499.13
2023-03-15T02:34:39.609Z,94493.91
2023-03-15T02:37:07.135Z,94505.13
2023-03-15T02:39:34.934Z,94504.31
2023-03-15T02:42:02.898Z,94509.53
2023-03-15T02:44:32.035Z,94507.91
2023-03-15T02:47:03.383Z,94522.59
2023-03-15T02:49:32.669Z,94525.34
2023-03-15T02:52:00.156Z,94527.00
2023-03-15T02:54:27.670Z,94554.03
2023-03-15T02:56:55.114Z,94567.09
2023-03-15T02:59:22.939Z,94573.13
2023-03-15T03:01:51.233Z,94594.00
2023-03-15T03:04:20.691Z,94597.59
2023-03-15T03:06:48.102Z,94604.59
2023-03-15T03:09:15.586Z,94621.88
2023-03-15T03:11:43.048Z,94635.75
2023-03-15T03:14:14.057Z,94649.78
2023-03-15T03:16:42.505Z,94644.56
2023-03-15T03:19:10.195Z,94660.22
2023-03-15T03:21:38.979Z,94665.44
2023-03-15T03:24:06.695Z,94667.31
2023-03-15T03:26:34.160Z,94680.25
2023-03-15T03:29:01.634Z,94690.81
2023-03-15T03:31:33.677Z,94698.63
2023-03-15T03:34:01.420Z,94703.84
2023-03-15T03:36:29.056Z,94722.13
2023-03-15T03:38:58.020Z,94735.16
2023-03-15T03:41:25.628Z,94743.00
2023-03-15T03:43:53.169Z,94749.03
2023-03-15T03:46:20.642Z,94752.47
2023-03-15T03:48:48.062Z,94760.28
2023-03-15T03:51:15.517Z,94768.13
2023-03-15T03:53:43.008Z,94775.13
2023-03-15T03:56:11.814Z,94775.94
2023-03-15T03:58:39.303Z,94792.47
2023-03-15T04:01:06.754Z,94798.50
2023-03-15T04:03:34.285Z,94805.34
2023-03-15T04:06:01.888Z,94799.28
2023-03-15T04:08:29.311Z,94826.22
2023-03-15T04:10:57.534Z,94828.81
2023-03-15T04:13:26.643Z,94834.03
2023-03-15T04:15:57.527Z,94829.66
2023-03-15T04:18:25.374Z,94835.81
2023-03-15T04:20:54.488Z,94849.16
2023-03-15T04:23:22.980Z,94849.97
2023-03-15T04:25:50.774Z,94857.78
2023-03-15T04:28:18.648Z,94857.94
2023-03-15T04:30:48.877Z,94870.03
2023-03-15T04:33:16.316Z,94863.34
2023-03-15T04:35:43.833Z,94871.00
2023-03-15T04:38:11.333Z,94884.88
2023-03-15T04:40:39.076Z,94892.84
2023-03-15T04:43:07.060Z,94888.44
2023-03-15T04:45:34.658Z,94889.41
2023-03-15T04:48:03.499Z,94901.47
2023-03-15T04:50:31.395Z,94897.25
2023-03-15T04:52:59.144Z,94905.91
2023-03-15T04:55:26.581Z,94912.91
2023-03-15T04:57:54.153Z,94923.34
2023-03-15T05:00:22.052Z,94931.16
2023-03-15T05:02:54.725Z,94934.59
2023-03-15T05:05:24.091Z,94935.41
2023-03-15T05:07:51.736Z,94935.25
2023-03-15T05:10:19.418Z,94944.72
2023-03-15T05:12:46.859Z,94957.91
2023-03-15T05:15:14.354Z,94950.91
2023-03-15T05:17:41.814Z,94956.94
2023-03-15T05:20:12.084Z,94957.66
2023-03-15T05:22:41.101Z,94968.09
2023-03-15T05:25:09.524Z,94965.50
2023-03-15T05:27:37.094Z,94974.09
2023-03-15T05:30:05.358Z,94974.78
2023-03-15T05:32:34.247Z,94979.31
2023-03-15T05:35:02.153Z,94986.19
2023-03-15T05:37:29.579Z,94988.81
2023-03-15T05:39:58.463Z,94994.03
2023-03-15T05:42:26.435Z,95001.69
2023-03-15T05:44:54.000Z,94998.41
2023-03-15T05:47:21.903Z,95007.91
2023-03-15T05:49:49.843Z,95005.41
2023-03-15T05:52:17.746Z,95024.50
2023-03-15T05:54:45.187Z,95031.50
2023-03-15T05:57:14.067Z,95033.34
2023-03-15T05:59:41.741Z,95045.38
2023-03-15T06:02:09.269Z,95042.78
2023-03-15T06:04:38.035Z,95054.88
2023-03-15T06:07:05.720Z,95055.66
2023-03-15T06:09:33.329Z,95055.66
2023-03-15T06:12:00.827Z,95063.50
2023-03-15T06:14:29.585Z,95060.09
2023-03-15T06:16:57.169Z,95062.81
2023-03-15T06:19:24.893Z,95065.44
2023-03-15T06:21:52.343Z,95070.53
2023-03-15T06:24:19.772Z,95064.63
2023-03-15T06:26:47.278Z,95081.91
2023-03-15T06:29:14.746Z,95080.97
2023-03-15T06:31:43.614Z,95084.38
2023-03-15T06:34:11.898Z,95090.56
2023-03-15T06:36:39.375Z,95083.56
2023-03-15T06:39:06.845Z,95090.41
2023-03-15T06:41:34.328Z,95084.38
2023-03-15T06:44:01.766Z,95092.06
2023-03-15T06:46:29.278Z,95093.84
2023-03-15T06:48:58.169Z,95101.53
2023-03-15T06:51:25.647Z,95103.31
2023-03-15T06:53:53.081Z,95111.97
2023-03-15T06:56:20.710Z,95118.97
2023-03-15T06:58:48.123Z,95110.34
2023-03-15T07:01:15.634Z,95110.34
2023-03-15T07:03:43.224Z,95115.56
2023-03-15T07:06:12.044Z,95112.94
2023-03-15T07:08:39.496Z,95116.34
2023-03-15T07:11:07.391Z,95115.56
2023-03-15T07:13:34.823Z,95114.56
2023-03-15T07:16:02.299Z,95123.38
2023-03-15T07:18:29.771Z,95126.00
2023-03-15T07:20:58.055Z,95134.63
2023-03-15T07:23:27.001Z,95130.38
2023-03-15T07:25:55.788Z,95133.00
2023-03-15T07:28:23.805Z,95139.03
2023-03-15T07:30:55.365Z,95133.81
2023-03-15T07:33:23.512Z,95142.59
2023-03-15T07:35:51.215Z,95149.59
2023-03-15T07:38:18.713Z,95140.97
2023-03-15T07:40:47.485Z,95140.00
2023-03-15T07:43:15.008Z,95139.16
2023-03-15T07:45:42.802Z,95146.19
2023-03-15T07:48:11.077Z,95141.94
2023-03-15T07:50:38.549Z,95142.75
2023-03-15T07:53:06.103Z,95146.19
2023-03-15T07:55:34.083Z,95139.16
2023-03-15T07:58:02.936Z,95141.78
2023-03-15T08:00:30.793Z,95138.38
2023-03-15T08:02:58.293Z,95144.38
2023-03-15T08:05:28.837Z,95139.16
2023-03-15T08:07:56.699Z,95133.94
2023-03-15T08:10:24.410Z,95139.16
2023-03-15T08:12:51.871Z,95138.38
2023-03-15T08:15:21.040Z,95139.16
2023-03-15T08:17:48.862Z,95140.97
2023-03-15T08:20:17.654Z,95142.75
2023-03-15T08:22:45.844Z,95139.16
2023-03-15T08:25:14.540Z,95135.75
2023-03-15T08:27:43.026Z,95138.38
2023-03-15T08:30:12.452Z,95138.38
2023-03-15T08:32:41.535Z,95140.00
2023-03-15T08:35:09.813Z,95140.00
2023-03-15T08:37:37.333Z,95136.56
2023-03-15T08:40:09.392Z,95144.38
2023-03-15T08:42:37.438Z,95136.44
2023-03-15T08:45:05.095Z,95145.22
2023-03-15T08:47:35.229Z,95138.22
2023-03-15T08:50:05.489Z,95140.81
2023-03-15T08:52:33.365Z,95134.63
2023-03-15T08:55:01.124Z,95133.81
2023-03-15T08:57:29.241Z,95131.88
2023-03-15T08:59:57.556Z,95132.84
2023-03-15T09:02:25.249Z,95135.44
2023-03-15T09:04:53.599Z,95132.84
2023-03-15T09:07:22.693Z,95134.63
2023-03-15T09:09:50.158Z,95145.88
2023-03-15T09:12:18.244Z,95140.66
2023-03-15T09:14:45.701Z,95137.22
2023-03-15T09:17:13.211Z,95135.31
2023-03-15T09:19:41.265Z,95138.06
2023-03-15T09:22:16.345Z,95136.44
2023-03-15T09:24:52.895Z,95129.41
2023-03-15T09:27:20.423Z,95139.03
2023-03-15T09:29:47.838Z,95130.38
2023-03-15T09:32:15.332Z,95137.38
2023-03-15T09:34:42.804Z,95147.00
2023-03-15T09:37:10.753Z,95143.44
2023-03-15T09:39:38.196Z,95143.44
2023-03-15T09:42:12.263Z,95136.56
2023-03-15T09:44:45.504Z,95142.59
2023-03-15T09:47:20.460Z,95135.75
2023-03-15T09:49:52.006Z,95135.75
2023-03-15T09:52:26.832Z,95147.81
2023-03-15T09:54:57.878Z,95144.38
2023-03-15T09:57:30.510Z,95147.00
2023-03-15T09:59:58.949Z,95153.03
2023-03-15T10:02:28.221Z,95156.47
2023-03-15T10:04:57.219Z,95162.66
2023-03-15T10:07:24.790Z,95165.13
2023-03-15T10:09:52.292Z,95169.69
2023-03-15T10:12:24.529Z,95171.31
2023-03-15T10:15:12.757Z,95177.34
2023-03-15T10:17:45.286Z,95165.13
2023-03-15T10:20:13.843Z,95168.53
2023-03-15T10:22:45.691Z,95167.75
2023-03-15T10:25:15.906Z,95163.31
2023-03-15T10:27:44.562Z,95165.94
2023-03-15T10:30:16.243Z,95166.75
2023-03-15T10:32:45.910Z,95158.94
2023-03-15T10:35:15.956Z,95145.88
2023-03-15T10:37:43.625Z,95155.50
2023-03-15T10:40:15.867Z,95157.97
2023-03-15T10:42:44.279Z,95164.97
2023-03-15T10:45:20.459Z,95170.34
2023-03-15T10:47:57.597Z,95159.91
2023-03-15T10:50:27.692Z,95148.66
2023-03-15T10:52:56.405Z,95160.88
2023-03-15T10:55:31.134Z,95143.44
2023-03-15T10:58:00.166Z,95153.03
2023-03-15T11:00:31.065Z,95142.59
2023-03-15T11:03:08.100Z,95140.97
2023-03-15T11:05:40.738Z,95152.22
2023-03-15T11:08:13.176Z,95155.66
2023-03-15T11:10:40.983Z,95149.59
2023-03-15T11:13:19.752Z,95149.59
2023-03-15T11:15:55.233Z,95153.19
2023-03-15T11:18:28.672Z,95140.97
2023-03-15T11:20:57.424Z,95143.59
2023-03-15T11:23:26.767Z,95146.19
2023-03-15T11:25:54.541Z,95147.81
2023-03-15T11:28:23.683Z,95141.66
2023-03-15T11:30:51.171Z,95146.19
2023-03-15T11:33:25.529Z,95152.09
2023-03-15T11:35:56.035Z,95136.56
2023-03-15T11:38:28.059Z,95136.56
2023-03-15T11:40:57.627Z,95133.94
2023-03-15T11:43:26.820Z,95140.00
2023-03-15T11:45:56.505Z,95134.78
2023-03-15T11:48:27.523Z,95131.34
2023-03-15T11:50:56.779Z,95131.34
2023-03-15T11:53:26.460Z,95122.56
2023-03-15T11:55:54.786Z,95127.78
2023-03-15T11:58:30.140Z,95126.00
2023-03-15T12:01:01.954Z,95126.00
2023-03-15T12:03:35.328Z,95124.34
2023-03-15T12:06:06.924Z,95119.94
2023-03-15T12:08:50.569Z,95113.75
2023-03-15T12:11:36.836Z,95114.56
2023-03-15T12:14:05.584Z,95109.34
2023-03-15T12:16:38.440Z,95115.41
2023-03-15T12:19:11.053Z,95108.53
2023-03-15T12:21:41.348Z,95102.34
2023-03-15T12:24:15.561Z,95103.19
2023-03-15T12:26:44.835Z,95097.13
2023-03-15T12:29:23.536Z,95101.53
2023-03-15T12:31:57.034Z,95093.56
2023-03-15T12:34:29.618Z,95093.56
2023-03-15T12:37:01.076Z,95093.69
2023-03-15T12:39:39.339Z,95086.69
2023-03-15T12:42:07.177Z,95089.31
2023-03-15T12:44:39.894Z,95081.63
2023-03-15T12:47:07.866Z,95085.88
2023-03-15T12:49:37.023Z,95081.47
2023-03-15T12:52:07.024Z,95075.44
2023-03-15T12:54:41.271Z,95079.03
2023-03-15T12:57:11.142Z,95077.22
2023-03-15T12:59:44.346Z,95078.19
2023-03-15T13:02:29.527Z,95085.03
2023-03-15T13:05:13.709Z,95081.63
2023-03-15T13:07:51.672Z,95076.41
2023-03-15T13:10:29.227Z,95084.09
2023-03-15T13:13:01.837Z,95087.53
2023-03-15T13:15:32.995Z,95090.97
2023-03-15T13:18:05.095Z,95085.75
2023-03-15T13:20:43.728Z,95089.16
2023-03-15T13:23:17.547Z,95086.53
2023-03-15T13:25:55.519Z,95089.81
2023-03-15T13:28:24.460Z,95096.84
2023-03-15T13:30:53.424Z,95090.63
2023-03-15T13:33:22.364Z,95091.47
2023-03-15T13:35:54.726Z,95082.66
2023-03-15T13:38:28.388Z,95083.63
2023-03-15T13:40:56.497Z,95089.69
2023-03-15T13:43:28.149Z,95084.47
2023-03-15T13:45:57.788Z,95095.69
2023-03-15T13:48:27.090Z,95093.91
2023-03-15T13:50:55.183Z,95101.75
2023-03-15T13:53:35.636Z,95096.53
2023-03-15T13:56:16.555Z,95086.25
2023-03-15T13:58:44.340Z,95092.28
2023-03-15T14:01:13.603Z,95094.91
2023-03-15T14:03:43.299Z,95088.03
2023-03-15T14:06:13.929Z,95100.13
2023-03-15T14:08:41.729Z,95093.25
2023-03-15T14:11:12.166Z,95084.59
2023-03-15T14:13:51.326Z,95090.63
2023-03-15T14:16:31.062Z,95094.25
2023-03-15T14:19:08.705Z,95103.84
2023-03-15T14:21:36.155Z,95109.06
2023-03-15T14:24:06.999Z,95115.13
2023-03-15T14:26:34.904Z,95104.81
2023-03-15T14:29:08.494Z,95099.59
2023-03-15T14:31:38.164Z,95109.06
2023-03-15T14:34:06.780Z,95108.25
2023-03-15T14:36:36.436Z,95118.53
2023-03-15T14:39:04.852Z,95115.91
2023-03-15T14:41:33.342Z,95108.09
2023-03-15T14:44:01.831Z,95115.13
2023-03-15T14:46:31.079Z,95110.69
2023-03-15T14:48:58.625Z,95106.31
2023-03-15T14:51:26.201Z,95103.69
2023-03-15T14:53:56.204Z,95098.63
2023-03-15T14:56:23.924Z,95097.66
2023-03-15T14:58:54.030Z,95099.28
2023-03-15T15:01:23.723Z,95100.13
2023-03-15T15:03:54.591Z,95098.31
2023-03-15T15:06:22.812Z,95092.28
2023-03-15T15:08:56.904Z,95099.13
2023-03-15T15:11:24.368Z,95098.19
2023-03-15T15:13:51.802Z,95093.91
2023-03-15T15:16:19.318Z,95089.53
2023-03-15T15:18:46.794Z,95096.41
2023-03-15T15:21:24.771Z,95098.19
2023-03-15T15:23:58.494Z,95097.19
2023-03-15T15:26:27.850Z,95104.06
2023-03-15T15:28:56.426Z,95100.63
2023-03-15T15:31:25.135Z,95101.63
2023-03-15T15:33:53.156Z,95102.41
2023-03-15T15:36:23.440Z,95099.81
2023-03-15T15:38:50.908Z,95107.63
2023-03-15T15:41:20.659Z,95101.63
2023-03-15T15:43:48.072Z,95102.41
2023-03-15T15:46:15.565Z,95101.47
2023-03-15T15:48:43.088Z,95109.44
2023-03-15T15:51:17.223Z,95112.84
2023-03-15T15:53:46.045Z,95107.78
2023-03-15T15:56:13.646Z,95118.06
2023-03-15T15:58:41.560Z,95111.22
2023-03-15T16:01:11.302Z,95113.84
2023-03-15T16:03:38.732Z,95122.50
2023-03-15T16:06:06.433Z,95131.13
2023-03-15T16:08:35.532Z,95129.34
2023-03-15T16:11:05.926Z,95141.56
2023-03-15T16:13:33.381Z,95151.22
2023-03-15T16:16:01.168Z,95145.16
2023-03-15T16:18:28.648Z,95148.59
2023-03-15T16:20:56.204Z,95153.81
2023-03-15T16:23:25.037Z,95157.38
2023-03-15T16:25:55.433Z,95164.25
2023-03-15T16:28:24.585Z,95158.06
2023-03-15T16:30:52.253Z,95163.28
2023-03-15T16:33:20.740Z,95163.44
2023-03-15T16:35:50.198Z,95166.03
2023-03-15T16:38:24.076Z,95184.31
2023-03-15T16:40:52.252Z,95177.31
2023-03-15T16:43:20.160Z,95193.09
2023-03-15T16:45:49.022Z,95205.53
2023-03-15T16:48:16.526Z,95206.38
2023-03-15T16:50:44.444Z,95213.81
2023-03-15T16:53:13.637Z,95225.94
2023-03-15T16:55:41.280Z,95221.31
2023-03-15T16:58:15.379Z,95216.50
2023-03-15T17:00:44.381Z,95229.56
2023-03-15T17:03:14.497Z,95238.34
2023-03-15T17:05:42.106Z,95239.59
2023-03-15T17:08:11.538Z,95245.06
2023-03-15T17:10:39.013Z,95245.91
2023-03-15T17:13:06.422Z,95247.84
2023-03-15T17:15:33.903Z,95259.38
2023-03-15T17:18:02.758Z,95262.25
2023-03-15T17:20:31.747Z,95270.06
2023-03-15T17:23:02.679Z,95262.94
2023-03-15T17:25:31.358Z,95267.19
2023-03-15T17:28:00.255Z,95269.78
2023-03-15T17:30:29.188Z,95266.34
2023-03-15T17:32:56.818Z,95268.16
2023-03-15T17:35:25.250Z,95279.53
2023-03-15T17:37:54.039Z,95276.25
2023-03-15T17:40:23.490Z,95279.81
2023-03-15T17:42:51.402Z,95287.53
2023-03-15T17:45:20.750Z,95282.31
2023-03-15T17:47:48.286Z,95290.94
2023-03-15T17:50:16.457Z,95285.59
2023-03-15T17:52:44.672Z,95295.34
2023-03-15T17:55:17.354Z,95295.47
2023-03-15T17:57:54.014Z,95298.22
2023-03-15T18:00:22.645Z,95296.03
2023-03-15T18:02:55.710Z,95300.41
2023-03-15T18:05:25.065Z,95304.00
2023-03-15T18:08:00.408Z,95304.25
2023-03-15T18:10:34.448Z,95299.72
2023-03-15T18:13:02.339Z,95308.22
2023-03-15T18:15:29.935Z,95319.34
2023-03-15T18:17:57.445Z,95320.31
2023-03-15T18:20:25.864Z,95322.25
2023-03-15T18:22:53.538Z,95330.19
2023-03-15T18:25:21.882Z,95326.09
2023-03-15T18:27:50.733Z,95333.25
2023-03-15T18:30:19.601Z,95332.53
2023-03-15T18:32:47.406Z,95343.09
2023-03-15T18:35:16.011Z,95333.66
2023-03-15T18:37:43.634Z,95345.03
2023-03-15T18:40:11.762Z,95347.78
2023-03-15T18:42:39.280Z,95345.44
2023-03-15T18:45:09.351Z,95341.47
2023-03-15T18:47:36.776Z,95353.25
2023-03-15T18:50:14.012Z,95352.44
2023-03-15T18:52:41.451Z,95349.97
2023-03-15T18:55:09.543Z,95356.97
2023-03-15T18:57:37.034Z,95365.75
2023-03-15T19:00:13.003Z,95363.00
2023-03-15T19:02:42.720Z,95369.31
2023-03-15T19:05:10.499Z,95369.44
2023-03-15T19:07:38.590Z,95373.03
2023-03-15T19:10:06.972Z,95371.63
2023-03-15T19:12:34.502Z,95386.56
2023-03-15T19:15:01.997Z,95379.56
2023-03-15T19:17:29.433Z,95376.97
2023-03-15T19:19:58.206Z,95382.34
2023-03-15T19:22:26.494Z,95371.91
2023-03-15T19:24:53.900Z,95374.38
2023-03-15T19:27:21.323Z,95383.00
2023-03-15T19:29:48.765Z,95383.16
2023-03-15T19:32:16.264Z,95381.50
2023-03-15T19:34:43.774Z,95376.44
2023-03-15T19:37:12.583Z,95380.56
2023-03-15T19:39:40.115Z,95385.19
2023-03-15T19:42:08.141Z,95387.13
2023-03-15T19:44:36.184Z,95393.41
2023-03-15T19:47:03.622Z,95384.78
2023-03-15T19:49:31.045Z,95392.63
2023-03-15T19:51:58.520Z,95392.91
2023-03-15T19:54:27.663Z,95393.88
2023-03-15T19:56:55.730Z,95398.38
2023-03-15T19:59:23.208Z,95393.31
2023-03-15T20:01:50.725Z,95397.84
2023-03-15T20:04:18.411Z,95400.72
2023-03-15T20:06:45.972Z,95398.53
2023-03-15T20:09:13.462Z,95408.41
2023-03-15T20:11:42.286Z,95406.38
2023-03-15T20:14:09.859Z,95411.44
2023-03-15T20:16:37.315Z,95409.34
2023-03-15T20:19:04.724Z,95412.66
2023-03-15T20:21:33.682Z,95417.59
2023-03-15T20:24:01.128Z,95431.31
2023-03-15T20:26:31.093Z,95427.78
2023-03-15T20:29:01.181Z,95424.19
2023-03-15T20:31:28.629Z,95420.63
2023-03-15T20:33:56.131Z,95424.88
2023-03-15T20:36:23.823Z,95430.09
2023-03-15T20:38:51.247Z,95438.59
2023-03-15T20:41:19.105Z,95444.63
2023-03-15T20:43:47.374Z,95443.69
2023-03-15T20:46:18.662Z,95445.31
2023-03-15T20:48:46.116Z,95444.50
2023-03-15T20:51:13.585Z,95448.75
2023-03-15T20:53:41.112Z,95447.78
2023-03-15T20:56:09.051Z,95440.09
2023-03-15T20:58:36.566Z,95446.97
2023-03-15T21:01:05.105Z,95451.09
2023-03-15T21:03:35.157Z,95452.88
2023-03-15T21:06:03.159Z,95457.25
2023-03-15T21:08:30.968Z,95455.34
2023-03-15T21:10:58.478Z,95450.28
2023-03-15T21:13:25.983Z,95448.34
2023-03-15T21:15:54.205Z,95446.69
2023-03-15T21:18:22.835Z,95447.38
2023-03-15T21:20:58.136Z,95442.97
2023-03-15T21:23:27.732Z,95444.75
2023-03-15T21:25:55.617Z,95446.41
2023-03-15T21:28:23.329Z,95448.09
2023-03-15T21:30:51.603Z,95445.47
2023-03-15T21:33:19.234Z,95439.41
2023-03-15T21:35:46.909Z,95446.28
2023-03-15T21:38:15.973Z,95437.66
2023-03-15T21:40:44.101Z,95450.53
2023-03-15T21:43:11.655Z,95446.16
2023-03-15T21:45:39.254Z,95454.94
2023-03-15T21:48:06.914Z,95450.53
2023-03-15T21:50:34.603Z,95448.75
2023-03-15T21:53:03.037Z,95453.97
2023-03-15T21:55:33.560Z,95457.38
2023-03-15T21:58:01.820Z,95444.34
2023-03-15T22:00:30.014Z,95452.16
2023-03-15T22:02:57.814Z,95445.31
2023-03-15T22:05:25.726Z,95456.59
2023-03-15T22:07:53.164Z,95445.31
2023-03-15T22:10:22.062Z,95443.53
2023-03-15T22:12:53.898Z,95441.72
2023-03-15T22:15:22.389Z,95450.38
2023-03-15T22:17:50.391Z,95450.53
2023-03-15T22:20:18.559Z,95454.78
2023-03-15T22:22:46.423Z,95451.38
2023-03-15T22:25:16.447Z,95455.75
2023-03-15T22:27:44.031Z,95454.78
2023-03-15T22:30:14.507Z,95450.53
2023-03-15T22:32:44.158Z,95438.44
2023-03-15T22:35:12.092Z,95441.88
2023-03-15T22:37:39.592Z,95443.66
2023-03-15T22:40:09.201Z,95447.94
2023-03-15T22:42:36.703Z,95455.59
2023-03-15T22:45:04.350Z,95464.41
2023-03-15T22:47:33.149Z,95457.38
2023-03-15T22:50:00.615Z,95454.09
2023-03-15T22:52:28.153Z,95465.34
2023-03-15T22:54:55.554Z,95460.97
2023-03-15T22:57:23.189Z,95457.38
2023-03-15T22:59:50.678Z,95454.94
2023-03-15T23:02:18.174Z,95467.97
2023-03-15T23:04:47.330Z,95458.38
2023-03-15T23:07:15.154Z,95461.81
2023-03-15T23:09:42.654Z,95455.91
2023-03-15T23:12:10.351Z,95459.31
2023-03-15T23:14:37.998Z,95459.31
2023-03-15T23:17:05.482Z,95461.13
2023-03-15T23:19:35.219Z,95460.97
2023-03-15T23:22:05.237Z,95457.69
2023-03-15T23:24:33.927Z,95463.72
2023-03-15T23:27:04.408Z,95466.34
2023-03-15T23:29:34.131Z,95461.91
2023-03-15T23:32:09.411Z,95469.06
2023-03-15T23:34:42.426Z,95476.88
2023-03-15T23:37:11.388Z,95473.44
2023-03-15T23:39:38.813Z,95470.03
2023-03-15T23:42:06.909Z,95472.78
2023-03-15T23:44:34.591Z,95466.59
2023-03-15T23:47:02.897Z,95463.03
2023-03-15T23:49:31.008Z,95476.78
2023-03-15T23:51:58.446Z,95478.41
2023-03-15T23:54:27.224Z,95478.25
2023-03-15T23:56:54.920Z,95479.25
2023-03-15T23:59:22.500Z,95466.19
